sensor_id;sensor_type;location;lat;lon;timestamp;pressure;altitude;pressure_sealevel;temperature;humidity
79617;BME280;69097;52.132;5.422;2023-08-08T00:02:11;101567.91;;;14.19;91.30
79617;BME280;69097;52.132;5.422;2023-08-08T00:04:37;101574.25;;;14.23;91.83
79617;BME280;69097;52.132;5.422;2023-08-08T00:07:04;101567.75;;;14.26;91.69
79617;BME280;69097;52.132;5.422;2023-08-08T00:09:31;101560.53;;;14.25;91.55
79617;BME280;69097;52.132;5.422;2023-08-08T00:11:57;101561.34;;;14.26;91.76
79617;BME280;69097;52.132;5.422;2023-08-08T00:14:24;101563.72;;;14.27;91.66
79617;BME280;69097;52.132;5.422;2023-08-08T00:16:51;101561.25;;;14.29;91.78
79617;BME280;69097;52.132;5.422;2023-08-08T00:19:17;101562.81;;;14.30;91.71
79617;BME280;69097;52.132;5.422;2023-08-08T00:21:44;101559.19;;;14.30;91.75
79617;BME280;69097;52.132;5.422;2023-08-08T00:24:10;101554.34;;;14.30;91.98
79617;BME280;69097;52.132;5.422;2023-08-08T00:26:37;101552.34;;;14.31;92.14
79617;BME280;69097;52.132;5.422;2023-08-08T00:29:03;101550.28;;;14.31;92.49
79617;BME280;69097;52.132;5.422;2023-08-08T00:31:30;101550.28;;;14.31;92.39
79617;BME280;69097;52.132;5.422;2023-08-08T00:33:56;101553.81;;;14.35;92.28
79617;BME280;69097;52.132;5.422;2023-08-08T00:36:23;101550.47;;;14.40;92.23
79617;BME280;69097;52.132;5.422;2023-08-08T00:38:50;101554.41;;;14.43;91.74
79617;BME280;69097;52.132;5.422;2023-08-08T00:41:16;101543.25;;;14.39;92.08
79617;BME280;69097;52.132;5.422;2023-08-08T00:43:43;101545.28;;;14.39;92.35
79617;BME280;69097;52.132;5.422;2023-08-08T00:46:10;101540.44;;;14.39;92.35
79617;BME280;69097;52.132;5.422;2023-08-08T00:48:37;101548.78;;;14.43;92.36
79617;BME280;69097;52.132;5.422;2023-08-08T00:51:04;101540.31;;;14.43;92.46
79617;BME280;69097;52.132;5.422;2023-08-08T00:53:31;101539.97;;;14.41;92.28
79617;BME280;69097;52.132;5.422;2023-08-08T00:55:58;101537.94;;;14.41;92.59
79617;BME280;69097;52.132;5.422;2023-08-08T00:58:26;101535.91;;;14.42;92.46
79617;BME280;69097;52.132;5.422;2023-08-08T01:00:52;101536.19;;;14.47;92.57
79617;BME280;69097;52.132;5.422;2023-08-08T01:03:23;101538.09;;;14.50;92.53
79617;BME280;69097;52.132;5.422;2023-08-08T01:06:06;101529.19;;;14.52;92.70
79617;BME280;69097;52.132;5.422;2023-08-08T01:08:57;101526.38;;;14.52;91.92
79617;BME280;69097;52.132;5.422;2023-08-08T01:11:22;101533.25;;;14.51;92.32
79617;BME280;69097;52.132;5.422;2023-08-08T01:13:50;101535.63;;;14.52;92.76
79617;BME280;69097;52.132;5.422;2023-08-08T01:16:19;101534.38;;;14.53;92.80
79617;BME280;69097;52.132;5.422;2023-08-08T01:18:47;101528.75;;;14.53;92.79
79617;BME280;69097;52.132;5.422;2023-08-08T01:21:15;101532.38;;;14.54;92.67
79617;BME280;69097;52.132;5.422;2023-08-08T01:23:45;101532.38;;;14.54;92.54
79617;BME280;69097;52.132;5.422;2023-08-08T01:26:12;101532.81;;;14.52;92.80
79617;BME280;69097;52.132;5.422;2023-08-08T01:28:39;101528.84;;;14.50;92.58
79617;BME280;69097;52.132;5.422;2023-08-08T01:31:06;101526.81;;;14.50;93.04
79617;BME280;69097;52.132;5.422;2023-08-08T01:33:33;101532.47;;;14.50;93.19
79617;BME280;69097;52.132;5.422;2023-08-08T01:36:05;101530.88;;;14.49;92.99
79617;BME280;69097;52.132;5.422;2023-08-08T01:38:36;101529.28;;;14.48;93.06
79617;BME280;69097;52.132;5.422;2023-08-08T01:41:05;101526.91;;;14.47;93.28
79617;BME280;69097;52.132;5.422;2023-08-08T01:43:33;101526.47;;;14.48;93.03
79617;BME280;69097;52.132;5.422;2023-08-08T01:46:02;101521.25;;;14.47;93.14
79617;BME280;69097;52.132;5.422;2023-08-08T01:48:30;101520.44;;;14.46;93.06
79617;BME280;69097;52.132;5.422;2023-08-08T01:50:57;101518.53;;;14.43;93.24
79617;BME280;69097;52.132;5.422;2023-08-08T01:53:23;101515.72;;;14.43;93.24
79617;BME280;69097;52.132;5.422;2023-08-08T01:55:50;101518.97;;;14.42;93.50
79617;BME280;69097;52.132;5.422;2023-08-08T01:58:18;101505.56;;;14.46;93.56
79617;BME280;69097;52.132;5.422;2023-08-08T02:00:45;101515.16;;;14.48;93.05
79617;BME280;69097;52.132;5.422;2023-08-08T02:03:13;101509.97;;;14.47;93.65
79617;BME280;69097;52.132;5.422;2023-08-08T02:05:39;101511.66;;;14.44;93.60
79617;BME280;69097;52.132;5.422;2023-08-08T02:08:06;101512.00;;;14.46;93.64
79617;BME280;69097;52.132;5.422;2023-08-08T02:10:33;101503.06;;;14.48;93.61
79617;BME280;69097;52.132;5.422;2023-08-08T02:12:59;101501.84;;;14.49;93.72
79617;BME280;69097;52.132;5.422;2023-08-08T02:15:25;101504.31;;;14.47;93.71
79617;BME280;69097;52.132;5.422;2023-08-08T02:17:52;101500.69;;;14.46;93.82
79617;BME280;69097;52.132;5.422;2023-08-08T02:20:18;101497.53;;;14.44;93.56
79617;BME280;69097;52.132;5.422;2023-08-08T02:22:45;101494.72;;;14.44;93.81
79617;BME280;69097;52.132;5.422;2023-08-08T02:25:12;101489.41;;;14.46;93.70
79617;BME280;69097;52.132;5.422;2023-08-08T02:27:38;101488.63;;;14.46;93.41
79617;BME280;69097;52.132;5.422;2023-08-08T02:30:05;101491.09;;;14.44;93.73
79617;BME280;69097;52.132;5.422;2023-08-08T02:32:32;101493.13;;;14.43;93.66
79617;BME280;69097;52.132;5.422;2023-08-08T02:34:58;101485.09;;;14.42;93.92
79617;BME280;69097;52.132;5.422;2023-08-08T02:37:25;101496.03;;;14.40;93.62
79617;BME280;69097;52.132;5.422;2023-08-08T02:39:52;101481.91;;;14.40;93.57
79617;BME280;69097;52.132;5.422;2023-08-08T02:42:18;101486.00;;;14.39;93.54
79617;BME280;69097;52.132;5.422;2023-08-08T02:44:45;101485.19;;;14.38;93.69
79617;BME280;69097;52.132;5.422;2023-08-08T02:47:11;101483.63;;;14.37;93.73
79617;BME280;69097;52.132;5.422;2023-08-08T02:49:38;101491.72;;;14.35;93.50
79617;BME280;69097;52.132;5.422;2023-08-08T02:52:04;101486.97;;;14.32;93.70
79617;BME280;69097;52.132;5.422;2023-08-08T02:54:31;101490.25;;;14.31;93.50
79617;BME280;69097;52.132;5.422;2023-08-08T02:56:57;101486.25;;;14.28;93.59
79617;BME280;69097;52.132;5.422;2023-08-08T02:59:24;101486.25;;;14.28;93.42
79617;BME280;69097;52.132;5.422;2023-08-08T03:01:50;101489.53;;;14.27;93.59
79617;BME280;69097;52.132;5.422;2023-08-08T03:04:16;101477.44;;;14.26;93.81
79617;BME280;69097;52.132;5.422;2023-08-08T03:06:43;101482.31;;;14.26;93.54
79617;BME280;69097;52.132;5.422;2023-08-08T03:09:09;101477.50;;;14.23;93.66
79617;BME280;69097;52.132;5.422;2023-08-08T03:11:36;101474.34;;;14.21;93.82
79617;BME280;69097;52.132;5.422;2023-08-08T03:14:03;101479.19;;;14.20;93.56
79617;BME280;69097;52.132;5.422;2023-08-08T03:16:30;101480.41;;;14.19;93.64
79617;BME280;69097;52.132;5.422;2023-08-08T03:18:56;101474.78;;;14.19;93.80
79617;BME280;69097;52.132;5.422;2023-08-08T03:21:23;101484.03;;;14.20;93.47
79617;BME280;69097;52.132;5.422;2023-08-08T03:23:49;101478.41;;;14.20;93.80
79617;BME280;69097;52.132;5.422;2023-08-08T03:26:16;101480.88;;;14.18;93.82
79617;BME280;69097;52.132;5.422;2023-08-08T03:28:42;101478.84;;;14.18;93.95
79617;BME280;69097;52.132;5.422;2023-08-08T03:31:09;101466.75;;;14.18;93.82
79617;BME280;69097;52.132;5.422;2023-08-08T03:33:35;101476.47;;;14.17;94.06
79617;BME280;69097;52.132;5.422;2023-08-08T03:36:02;101472.84;;;14.16;94.18
79617;BME280;69097;52.132;5.422;2023-08-08T03:38:28;101477.28;;;14.17;94.32
79617;BME280;69097;52.132;5.422;2023-08-08T03:40:55;101469.66;;;14.14;94.06
79617;BME280;69097;52.132;5.422;2023-08-08T03:43:21;101472.50;;;14.14;94.18
79617;BME280;69097;52.132;5.422;2023-08-08T03:45:48;101466.53;;;14.12;93.90
79617;BME280;69097;52.132;5.422;2023-08-08T03:48:15;101462.09;;;14.11;94.00
79617;BME280;69097;52.132;5.422;2023-08-08T03:50:41;101465.72;;;14.12;93.91
79617;BME280;69097;52.132;5.422;2023-08-08T03:53:08;101454.88;;;14.10;93.94
79617;BME280;69097;52.132;5.422;2023-08-08T03:55:34;101461.72;;;14.09;93.78
79617;BME280;69097;52.132;5.422;2023-08-08T03:58:01;101466.59;;;14.09;93.74
79617;BME280;69097;52.132;5.422;2023-08-08T04:00:28;101459.81;;;14.06;93.71
79617;BME280;69097;52.132;5.422;2023-08-08T04:02:54;101462.63;;;14.06;93.64
79617;BME280;69097;52.132;5.422;2023-08-08T04:05:21;101454.59;;;14.05;93.93
79617;BME280;69097;52.132;5.422;2023-08-08T04:07:47;101453.81;;;14.04;93.81
79617;BME280;69097;52.132;5.422;2023-08-08T04:10:14;101451.78;;;14.05;93.88
79617;BME280;69097;52.132;5.422;2023-08-08T04:12:40;101453.47;;;14.02;93.79
79617;BME280;69097;52.132;5.422;2023-08-08T04:15:07;101451.06;;;14.01;93.37
79617;BME280;69097;52.132;5.422;2023-08-08T04:17:34;101446.31;;;13.98;93.66
79617;BME280;69097;52.132;5.422;2023-08-08T04:20:02;101441.94;;;13.97;93.34
79617;BME280;69097;52.132;5.422;2023-08-08T04:22:29;101442.38;;;13.95;93.58
79617;BME280;69097;52.132;5.422;2023-08-08T04:24:56;101438.41;;;13.93;93.24
79617;BME280;69097;52.132;5.422;2023-08-08T04:27:22;101438.03;;;13.91;92.94
79617;BME280;69097;52.132;5.422;2023-08-08T04:29:49;101436.56;;;13.86;92.78
79617;BME280;69097;52.132;5.422;2023-08-08T04:32:15;101443.88;;;13.84;92.84
79617;BME280;69097;52.132;5.422;2023-08-08T04:34:42;101451.19;;;13.81;92.85
79617;BME280;69097;52.132;5.422;2023-08-08T04:37:08;101456.38;;;13.83;93.04
79617;BME280;69097;52.132;5.422;2023-08-08T04:39:35;101454.38;;;13.83;92.97
79617;BME280;69097;52.132;5.422;2023-08-08T04:42:01;101453.56;;;13.83;92.90
79617;BME280;69097;52.132;5.422;2023-08-08T04:44:28;101448.81;;;13.80;92.89
79617;BME280;69097;52.132;5.422;2023-08-08T04:46:55;101450.81;;;13.79;92.94
79617;BME280;69097;52.132;5.422;2023-08-08T04:49:22;101440.78;;;13.78;92.85
79617;BME280;69097;52.132;5.422;2023-08-08T04:51:48;101443.16;;;13.80;92.94
79617;BME280;69097;52.132;5.422;2023-08-08T04:54:15;101440.34;;;13.80;92.54
79617;BME280;69097;52.132;5.422;2023-08-08T04:56:41;101435.94;;;13.79;92.91
79617;BME280;69097;52.132;5.422;2023-08-08T04:59:08;101435.88;;;13.82;92.83
79617;BME280;69097;52.132;5.422;2023-08-08T05:01:34;101435.16;;;13.78;92.83
79617;BME280;69097;52.132;5.422;2023-08-08T05:04:01;101435.94;;;13.79;92.52
79617;BME280;69097;52.132;5.422;2023-08-08T05:06:28;101431.16;;;13.76;92.39
79617;BME280;69097;52.132;5.422;2023-08-08T05:08:55;101437.25;;;13.74;92.48
79617;BME280;69097;52.132;5.422;2023-08-08T05:11:23;101431.63;;;13.74;92.13
79617;BME280;69097;52.132;5.422;2023-08-08T05:13:49;101435.69;;;13.73;92.21
79617;BME280;69097;52.132;5.422;2023-08-08T05:16:16;101439.63;;;13.76;92.73
79617;BME280;69097;52.132;5.422;2023-08-08T05:18:42;101441.59;;;13.79;92.82
79617;BME280;69097;52.132;5.422;2023-08-08T05:21:11;101441.50;;;13.82;92.62
79617;BME280;69097;52.132;5.422;2023-08-08T05:23:37;101443.00;;;13.87;92.57
79617;BME280;69097;52.132;5.422;2023-08-08T05:26:04;101443.00;;;13.87;92.61
79617;BME280;69097;52.132;5.422;2023-08-08T05:28:30;101452.25;;;13.87;92.64
79617;BME280;69097;52.132;5.422;2023-08-08T05:30:57;101455.06;;;13.87;92.60
79617;BME280;69097;52.132;5.422;2023-08-08T05:33:25;101461.41;;;13.91;92.44
79617;BME280;69097;52.132;5.422;2023-08-08T05:35:52;101444.47;;;13.91;92.24
79617;BME280;69097;52.132;5.422;2023-08-08T05:38:18;101454.19;;;13.90;92.17
79617;BME280;69097;52.132;5.422;2023-08-08T05:40:45;101443.69;;;13.91;92.18
79617;BME280;69097;52.132;5.422;2023-08-08T05:43:11;101454.97;;;13.91;92.04
79617;BME280;69097;52.132;5.422;2023-08-08T05:45:43;101454.97;;;13.91;92.06
79617;BME280;69097;52.132;5.422;2023-08-08T05:48:10;101463.34;;;13.94;91.97
79617;BME280;69097;52.132;5.422;2023-08-08T05:50:40;101466.16;;;13.94;92.15
79617;BME280;69097;52.132;5.422;2023-08-08T05:53:06;101464.06;;;13.98;91.55
79617;BME280;69097;52.132;5.422;2023-08-08T05:55:33;101463.59;;;14.00;91.76
79617;BME280;69097;52.132;5.422;2023-08-08T05:57:59;101460.34;;;14.01;91.61
79617;BME280;69097;52.132;5.422;2023-08-08T06:00:26;101459.03;;;14.06;91.87
79617;BME280;69097;52.132;5.422;2023-08-08T06:02:52;101466.25;;;14.07;91.34
79617;BME280;69097;52.132;5.422;2023-08-08T06:05:22;101463.34;;;14.10;91.57
79617;BME280;69097;52.132;5.422;2023-08-08T06:07:50;101459.63;;;14.13;91.36
79617;BME280;69097;52.132;5.422;2023-08-08T06:10:16;101458.38;;;14.14;91.25
79617;BME280;69097;52.132;5.422;2023-08-08T06:12:43;101461.91;;;14.18;91.23
79617;BME280;69097;52.132;5.422;2023-08-08T06:15:09;101462.28;;;14.20;90.53
79617;BME280;69097;52.132;5.422;2023-08-08T06:17:36;101471.41;;;14.24;90.52
79617;BME280;69097;52.132;5.422;2023-08-08T06:20:03;101470.13;;;14.29;90.52
79617;BME280;69097;52.132;5.422;2023-08-08T06:22:30;101473.31;;;14.31;90.78
79617;BME280;69097;52.132;5.422;2023-08-08T06:24:57;101481.69;;;14.34;90.28
79617;BME280;69097;52.132;5.422;2023-08-08T06:27:23;101478.41;;;14.36;89.03
79617;BME280;69097;52.132;5.422;2023-08-08T06:29:50;101471.44;;;14.40;88.21
79617;BME280;69097;52.132;5.422;2023-08-08T06:32:17;101474.50;;;14.46;87.74
79617;BME280;69097;52.132;5.422;2023-08-08T06:34:44;101479.16;;;14.52;88.37
79617;BME280;69097;52.132;5.422;2023-08-08T06:37:10;101481.81;;;14.59;87.95
79617;BME280;69097;52.132;5.422;2023-08-08T06:39:37;101483.19;;;14.67;87.13
79617;BME280;69097;52.132;5.422;2023-08-08T06:42:05;101478.56;;;14.73;87.08
79617;BME280;69097;52.132;5.422;2023-08-08T06:44:41;101484.00;;;14.80;86.07
79617;BME280;69097;52.132;5.422;2023-08-08T06:47:08;101482.13;;;14.90;86.28
79617;BME280;69097;52.132;5.422;2023-08-08T06:49:35;101474.25;;;14.98;84.38
79617;BME280;69097;52.132;5.422;2023-08-08T06:52:01;101482.50;;;15.05;83.00
79617;BME280;69097;52.132;5.422;2023-08-08T06:54:27;101486.72;;;15.13;83.62
79617;BME280;69097;52.132;5.422;2023-08-08T06:56:57;101489.69;;;15.22;83.35
79617;BME280;69097;52.132;5.422;2023-08-08T06:59:26;101491.84;;;15.30;83.76
79617;BME280;69097;52.132;5.422;2023-08-08T07:01:53;101496.81;;;15.39;82.36
79617;BME280;69097;52.132;5.422;2023-08-08T07:04:19;101478.06;;;15.45;82.21
79617;BME280;69097;52.132;5.422;2023-08-08T07:06:46;101489.97;;;15.52;82.90
79617;BME280;69097;52.132;5.422;2023-08-08T07:09:13;101483.31;;;15.59;81.15
79617;BME280;69097;52.132;5.422;2023-08-08T07:11:41;101483.06;;;15.66;79.60
79617;BME280;69097;52.132;5.422;2023-08-08T07:14:07;101482.06;;;15.72;80.10
79617;BME280;69097;52.132;5.422;2023-08-08T07:16:34;101483.41;;;15.80;79.85
79617;BME280;69097;52.132;5.422;2023-08-08T07:19:00;101486.78;;;15.88;78.80
79617;BME280;69097;52.132;5.422;2023-08-08T07:21:27;101480.53;;;15.93;78.97
79617;BME280;69097;52.132;5.422;2023-08-08T07:23:54;101479.09;;;16.01;78.21
79617;BME280;69097;52.132;5.422;2023-08-08T07:26:20;101472.28;;;16.11;77.46
79617;BME280;69097;52.132;5.422;2023-08-08T07:28:48;101468.19;;;16.12;76.98
79617;BME280;69097;52.132;5.422;2023-08-08T07:31:15;101462.75;;;16.18;77.63
79617;BME280;69097;52.132;5.422;2023-08-08T07:33:41;101461.69;;;16.24;75.89
79617;BME280;69097;52.132;5.422;2023-08-08T07:36:08;101463.94;;;16.29;74.65
79617;BME280;69097;52.132;5.422;2023-08-08T07:38:34;101455.78;;;16.31;74.16
79617;BME280;69097;52.132;5.422;2023-08-08T07:41:01;101455.09;;;16.40;76.18
79617;BME280;69097;52.132;5.422;2023-08-08T07:43:27;101457.53;;;16.50;76.07
79617;BME280;69097;52.132;5.422;2023-08-08T07:45:54;101454.06;;;16.46;73.46
79617;BME280;69097;52.132;5.422;2023-08-08T07:48:20;101444.97;;;16.51;73.86
79617;BME280;69097;52.132;5.422;2023-08-08T07:50:47;101448.47;;;16.55;75.43
79617;BME280;69097;52.132;5.422;2023-08-08T07:53:13;101451.84;;;16.63;74.03
79617;BME280;69097;52.132;5.422;2023-08-08T07:55:40;101449.00;;;16.63;74.20
79617;BME280;69097;52.132;5.422;2023-08-08T07:58:06;101444.53;;;16.74;74.14
79617;BME280;69097;52.132;5.422;2023-08-08T08:00:33;101459.75;;;16.89;75.32
79617;BME280;69097;52.132;5.422;2023-08-08T08:02:59;101461.66;;;16.92;72.76
79617;BME280;69097;52.132;5.422;2023-08-08T08:05:26;101458.56;;;16.99;69.89
79617;BME280;69097;52.132;5.422;2023-08-08T08:07:53;101446.13;;;16.97;68.53
79617;BME280;69097;52.132;5.422;2023-08-08T08:10:19;101446.75;;;17.01;69.04
79617;BME280;69097;52.132;5.422;2023-08-08T08:12:46;101453.63;;;17.12;67.53
79617;BME280;69097;52.132;5.422;2023-08-08T08:15:12;101450.34;;;17.23;67.76
79617;BME280;69097;52.132;5.422;2023-08-08T08:17:39;101448.63;;;17.26;68.94
79617;BME280;69097;52.132;5.422;2023-08-08T08:20:06;101449.88;;;17.24;67.92
79617;BME280;69097;52.132;5.422;2023-08-08T08:22:37;101450.88;;;17.31;67.66
79617;BME280;69097;52.132;5.422;2023-08-08T08:25:05;101448.38;;;17.33;65.93
79617;BME280;69097;52.132;5.422;2023-08-08T08:27:33;101440.63;;;17.33;68.20
79617;BME280;69097;52.132;5.422;2023-08-08T08:30:00;101438.66;;;17.43;66.13
79617;BME280;69097;52.132;5.422;2023-08-08T08:32:26;101443.66;;;17.39;66.38
79617;BME280;69097;52.132;5.422;2023-08-08T08:34:53;101446.28;;;17.55;65.56
79617;BME280;69097;52.132;5.422;2023-08-08T08:37:19;101446.09;;;17.49;67.91
79617;BME280;69097;52.132;5.422;2023-08-08T08:39:46;101439.06;;;17.63;66.83
79617;BME280;69097;52.132;5.422;2023-08-08T08:42:13;101443.19;;;17.71;66.77
79617;BME280;69097;52.132;5.422;2023-08-08T08:44:42;101447.91;;;17.74;66.41
79617;BME280;69097;52.132;5.422;2023-08-08T08:47:09;101447.28;;;17.70;68.29
79617;BME280;69097;52.132;5.422;2023-08-08T08:49:39;101452.94;;;17.61;67.20
79617;BME280;69097;52.132;5.422;2023-08-08T08:52:08;101456.03;;;17.54;65.26
79617;BME280;69097;52.132;5.422;2023-08-08T08:54:35;101457.91;;;17.48;65.25
79617;BME280;69097;52.132;5.422;2023-08-08T08:57:02;101461.81;;;17.41;66.69
79617;BME280;69097;52.132;5.422;2023-08-08T08:59:28;101461.00;;;17.41;67.06
79617;BME280;69097;52.132;5.422;2023-08-08T09:01:56;101458.22;;;17.50;66.01
79617;BME280;69097;52.132;5.422;2023-08-08T09:04:23;101464.22;;;17.52;64.77
79617;BME280;69097;52.132;5.422;2023-08-08T09:06:50;101466.28;;;17.51;66.65
79617;BME280;69097;52.132;5.422;2023-08-08T09:09:18;101460.78;;;17.57;64.96
79617;BME280;69097;52.132;5.422;2023-08-08T09:11:50;101461.09;;;17.59;63.50
79617;BME280;69097;52.132;5.422;2023-08-08T09:14:25;101460.50;;;17.64;65.70
79617;BME280;69097;52.132;5.422;2023-08-08T09:16:53;101457.69;;;17.73;66.11
79617;BME280;69097;52.132;5.422;2023-08-08T09:19:20;101457.72;;;17.82;64.94
79617;BME280;69097;52.132;5.422;2023-08-08T09:21:48;101463.38;;;17.73;63.01
79617;BME280;69097;52.132;5.422;2023-08-08T09:24:15;101452.66;;;17.68;63.63
79617;BME280;69097;52.132;5.422;2023-08-08T09:26:42;101452.78;;;17.64;63.44
79617;BME280;69097;52.132;5.422;2023-08-08T09:29:13;101456.56;;;17.61;64.52
79617;BME280;69097;52.132;5.422;2023-08-08T09:31:41;101456.81;;;17.94;67.32
79617;BME280;69097;52.132;5.422;2023-08-08T09:34:08;101451.97;;;18.21;66.03
79617;BME280;69097;52.132;5.422;2023-08-08T09:36:34;101454.03;;;18.21;63.61
79617;BME280;69097;52.132;5.422;2023-08-08T09:39:01;101454.03;;;18.39;64.02
79617;BME280;69097;52.132;5.422;2023-08-08T09:41:28;101454.72;;;18.61;65.08
79617;BME280;69097;52.132;5.422;2023-08-08T09:43:54;101456.31;;;18.62;60.66
79617;BME280;69097;52.132;5.422;2023-08-08T09:46:22;101460.53;;;18.85;60.74
79617;BME280;69097;52.132;5.422;2023-08-08T09:48:50;101449.16;;;18.85;60.16
79617;BME280;69097;52.132;5.422;2023-08-08T09:51:16;101469.88;;;18.67;59.38
79617;BME280;69097;52.132;5.422;2023-08-08T09:53:43;101458.19;;;18.47;61.09
79617;BME280;69097;52.132;5.422;2023-08-08T09:56:14;101469.03;;;18.30;60.22
79617;BME280;69097;52.132;5.422;2023-08-08T09:58:42;101470.13;;;18.15;61.30
79617;BME280;69097;52.132;5.422;2023-08-08T10:01:10;101469.00;;;18.03;63.73
79617;BME280;69097;52.132;5.422;2023-08-08T10:03:40;101476.06;;;17.90;61.92
79617;BME280;69097;52.132;5.422;2023-08-08T10:06:09;101475.78;;;18.06;63.48
79617;BME280;69097;52.132;5.422;2023-08-08T10:08:36;101472.00;;;18.18;61.22
79617;BME280;69097;52.132;5.422;2023-08-08T10:11:03;101478.34;;;18.22;62.12
79617;BME280;69097;52.132;5.422;2023-08-08T10:13:31;101474.81;;;18.09;61.78
79617;BME280;69097;52.132;5.422;2023-08-08T10:16:04;101479.13;;;18.22;62.13
79617;BME280;69097;52.132;5.422;2023-08-08T10:18:31;101477.44;;;18.61;60.11
79617;BME280;69097;52.132;5.422;2023-08-08T10:20:57;101464.81;;;18.80;60.61
79617;BME280;69097;52.132;5.422;2023-08-08T10:23:24;101465.13;;;18.82;59.97
79617;BME280;69097;52.132;5.422;2023-08-08T10:25:55;101481.88;;;18.71;59.99
79617;BME280;69097;52.132;5.422;2023-08-08T10:28:21;101487.88;;;18.73;59.17
79617;BME280;69097;52.132;5.422;2023-08-08T10:30:53;101473.66;;;18.82;62.35
79617;BME280;69097;52.132;5.422;2023-08-08T10:33:25;101479.81;;;18.81;59.36
79617;BME280;69097;52.132;5.422;2023-08-08T10:36:03;101489.63;;;18.71;61.09
79617;BME280;69097;52.132;5.422;2023-08-08T10:38:40;101483.78;;;18.74;59.95
79617;BME280;69097;52.132;5.422;2023-08-08T10:41:12;101485.03;;;18.73;61.10
79617;BME280;69097;52.132;5.422;2023-08-08T10:43:48;101482.50;;;18.75;61.31
79617;BME280;69097;52.132;5.422;2023-08-08T10:46:27;101487.38;;;18.75;61.41
79617;BME280;69097;52.132;5.422;2023-08-08T10:48:57;101488.50;;;18.77;61.65
79617;BME280;69097;52.132;5.422;2023-08-08T10:51:37;101484.56;;;18.84;61.73
79617;BME280;69097;52.132;5.422;2023-08-08T10:54:08;101479.03;;;18.80;62.98
79617;BME280;69097;52.132;5.422;2023-08-08T10:56:38;101476.81;;;18.84;61.38
79617;BME280;69097;52.132;5.422;2023-08-08T10:59:24;101473.19;;;18.93;61.39
79617;BME280;69097;52.132;5.422;2023-08-08T11:01:52;101480.91;;;18.92;58.63
79617;BME280;69097;52.132;5.422;2023-08-08T11:04:23;101478.06;;;18.92;58.85
79617;BME280;69097;52.132;5.422;2023-08-08T11:06:52;101474.59;;;18.97;59.95
79617;BME280;69097;52.132;5.422;2023-08-08T11:09:20;101475.84;;;19.05;58.77
79617;BME280;69097;52.132;5.422;2023-08-08T11:11:47;101483.13;;;19.06;59.48
79617;BME280;69097;52.132;5.422;2023-08-08T11:14:15;101476.47;;;19.00;59.09
79617;BME280;69097;52.132;5.422;2023-08-08T11:16:43;101484.41;;;18.87;56.83
79617;BME280;69097;52.132;5.422;2023-08-08T11:19:11;101487.56;;;18.80;58.20
79617;BME280;69097;52.132;5.422;2023-08-08T11:21:45;101484.41;;;18.87;60.72
79617;BME280;69097;52.132;5.422;2023-08-08T11:24:13;101481.72;;;18.93;59.00
79617;BME280;69097;52.132;5.422;2023-08-08T11:26:41;101472.06;;;18.90;59.01
79617;BME280;69097;52.132;5.422;2023-08-08T11:29:08;101470.78;;;19.00;57.75
79617;BME280;69097;52.132;5.422;2023-08-08T11:31:35;101480.25;;;19.15;58.33
79617;BME280;69097;52.132;5.422;2023-08-08T11:34:03;101476.78;;;19.11;58.24
79617;BME280;69097;52.132;5.422;2023-08-08T11:36:32;101478.66;;;19.14;59.23
79617;BME280;69097;52.132;5.422;2023-08-08T11:39:04;101476.41;;;19.27;59.37
79617;BME280;69097;52.132;5.422;2023-08-08T11:41:35;101472.94;;;19.41;59.12
79617;BME280;69097;52.132;5.422;2023-08-08T11:44:06;101470.84;;;19.51;57.54
79617;BME280;69097;52.132;5.422;2023-08-08T11:46:35;101473.53;;;19.45;56.24
79617;BME280;69097;52.132;5.422;2023-08-08T11:49:09;101460.75;;;19.41;58.61
79617;BME280;69097;52.132;5.422;2023-08-08T11:51:35;101469.84;;;19.63;60.51
79617;BME280;69097;52.132;5.422;2023-08-08T11:54:03;101448.44;;;19.77;58.60
79617;BME280;69097;52.132;5.422;2023-08-08T11:56:33;101459.91;;;19.91;57.90
79617;BME280;69097;52.132;5.422;2023-08-08T11:59:00;101458.47;;;19.96;59.02
79617;BME280;69097;52.132;5.422;2023-08-08T12:01:28;101450.50;;;20.00;55.91
79617;BME280;69097;52.132;5.422;2023-08-08T12:03:57;101461.22;;;19.81;57.09
79617;BME280;69097;52.132;5.422;2023-08-08T12:06:28;101464.91;;;19.73;58.15
79617;BME280;69097;52.132;5.422;2023-08-08T12:08:55;101463.94;;;19.76;57.56
79617;BME280;69097;52.132;5.422;2023-08-08T12:11:22;101460.19;;;19.70;59.26
79617;BME280;69097;52.132;5.422;2023-08-08T12:13:58;101464.91;;;19.73;58.99
79617;BME280;69097;52.132;5.422;2023-08-08T12:16:27;101450.63;;;19.82;60.10
79617;BME280;69097;52.132;5.422;2023-08-08T12:18:56;101473.44;;;19.73;57.70
79617;BME280;69097;52.132;5.422;2023-08-08T12:21:22;101452.94;;;19.59;58.21
79617;BME280;69097;52.132;5.422;2023-08-08T12:23:49;101452.63;;;19.57;59.00
79617;BME280;69097;52.132;5.422;2023-08-08T12:26:15;101459.63;;;19.47;57.92
79617;BME280;69097;52.132;5.422;2023-08-08T12:28:42;101460.00;;;19.73;61.07
79617;BME280;69097;52.132;5.422;2023-08-08T12:31:08;101460.63;;;19.77;59.99
79617;BME280;69097;52.132;5.422;2023-08-08T12:33:35;101464.66;;;19.62;57.64
79617;BME280;69097;52.132;5.422;2023-08-08T12:36:01;101468.19;;;19.38;57.96
79617;BME280;69097;52.132;5.422;2023-08-08T12:38:28;101468.69;;;19.19;58.91
79617;BME280;69097;52.132;5.422;2023-08-08T12:40:54;101466.47;;;19.32;59.70
79617;BME280;69097;52.132;5.422;2023-08-08T12:43:21;101461.41;;;19.27;59.18
79617;BME280;69097;52.132;5.422;2023-08-08T12:45:47;101466.13;;;19.39;59.42
79617;BME280;69097;52.132;5.422;2023-08-08T12:48:14;101468.88;;;19.66;58.83
79617;BME280;69097;52.132;5.422;2023-08-08T12:50:41;101458.16;;;19.94;58.78
79617;BME280;69097;52.132;5.422;2023-08-08T12:53:07;101454.75;;;20.04;58.81